Academy, South Dakota
Current Conditions -  °F | °C
As of 12:35 AM on Wednesday 26 Nov 2014 (Local Time) from K9V9 Reporting Station
Overcast Overcast  
Wind Chill: -4°   Ceiling: 2100
Heat Index:   Visibility: 10mi
Dew Point:   Wind: 16mph
Humidity: 89%   Direction: 310°NW
Pressure: 29.87"   Gusts: 20mph
Location:  43.4255°N, 98.9806°W
Report Text: K9V9 260635Z AUTO 31014G17KT 10SM BKN021 OVC028 02/00 A2987 RMK AO2 T00151001
Loading
Personal Weather Stations






























Interactive Weather Map New forecast layout! Learn more

10-Day Weather Forecast

Advertisements
Track Severe Weather on mobile